Lake Ariel, Pennsylvania
Current Conditions -  °F | °C
As of 10:54 PM on Thursday 18 Dec 2014 (Local Time) from KAVP Reporting Station
Overcast Overcast  
Wind Chill: 27°   Ceiling: 3000
Heat Index: 34°   Visibility: 10mi
Dew Point: 23°   Wind: 8mph
Humidity: 64%   Direction: 300°WNW
Pressure: 29.98"   Gusts: NA
Location:  41.45°N, 75.38°W
Report Text: KAVP 190354Z AUTO 30007KT 10SM BKN030 OVC039 01/M05 A2998 RMK AO2 SLP160 T00111050
Loading
Personal Weather Stations






























Interactive Weather Map New forecast layout! Learn more

10-Day Weather Forecast

Advertisements
Track Severe Weather on mobile